createdAt,value
2018-08-24T00:00:15.829Z,19.83
2018-08-24T00:02:43.131Z,20.50
2018-08-24T00:05:10.435Z,21.07
2018-08-24T00:07:37.731Z,19.87
2018-08-24T00:10:05.398Z,19.23
2018-08-24T00:12:32.661Z,19.70
2018-08-24T00:14:59.930Z,20.27
2018-08-24T00:17:31.261Z,18.40
2018-08-24T00:19:58.961Z,16.43
2018-08-24T00:22:26.445Z,20.40
2018-08-24T00:24:53.717Z,19.03
2018-08-24T00:27:21.110Z,17.33
2018-08-24T00:29:48.393Z,18.00
2018-08-24T00:32:15.676Z,18.03
2018-08-24T00:34:42.980Z,17.23
2018-08-24T00:37:10.626Z,17.13
2018-08-24T00:39:42.056Z,16.23
2018-08-24T00:42:09.372Z,18.00
2018-08-24T00:44:36.639Z,14.93
2018-08-24T00:47:03.931Z,17.77
2018-08-24T00:49:31.262Z,16.90
2018-08-24T00:51:58.533Z,16.00
2018-08-24T00:54:25.800Z,15.67
2018-08-24T00:56:53.120Z,15.80
2018-08-24T00:59:20.406Z,15.57
2018-08-24T01:01:48.106Z,14.57
2018-08-24T01:04:19.768Z,14.87
2018-08-24T01:06:47.041Z,14.67
2018-08-24T01:09:14.356Z,15.20
2018-08-24T01:11:47.013Z,15.50
2018-08-24T01:14:14.293Z,14.73
2018-08-24T01:16:46.970Z,13.60
2018-08-24T01:19:14.281Z,13.17
2018-08-24T01:21:41.626Z,14.53
2018-08-24T01:24:08.929Z,12.53
2018-08-24T01:26:36.397Z,13.60
2018-08-24T01:29:03.671Z,13.93
2018-08-24T01:31:30.970Z,13.50
2018-08-24T01:33:58.281Z,14.03
2018-08-24T01:36:25.572Z,12.57
2018-08-24T01:38:52.849Z,12.47
2018-08-24T01:41:20.167Z,12.47
2018-08-24T01:43:47.464Z,12.47
2018-08-24T01:46:15.683Z,12.80
2018-08-24T01:48:43.061Z,11.60
2018-08-24T01:51:10.359Z,12.03
2018-08-24T01:53:37.641Z,12.30
2018-08-24T01:56:05.074Z,10.93
2018-08-24T01:58:32.361Z,11.50
2018-08-24T02:00:59.645Z,12.20
2018-08-24T02:03:26.958Z,12.07
2018-08-24T02:05:59.710Z,11.77
2018-08-24T02:08:27.041Z,11.10
2018-08-24T02:10:54.337Z,12.17
2018-08-24T02:13:27.102Z,11.80
2018-08-24T02:15:54.422Z,12.30
2018-08-24T02:18:27.293Z,12.73
2018-08-24T02:21:00.088Z,11.47
2018-08-24T02:23:27.389Z,12.07
2018-08-24T02:25:54.676Z,11.43
2018-08-24T02:28:21.962Z,10.03
2018-08-24T02:30:49.241Z,13.53
2018-08-24T02:33:16.560Z,11.87
2018-08-24T02:35:43.886Z,13.03
2018-08-24T02:38:11.167Z,15.30
2018-08-24T02:40:38.504Z,14.50
2018-08-24T02:43:06.603Z,16.70
2018-08-24T02:45:34.038Z,15.47
2018-08-24T02:48:01.520Z,15.13
2018-08-24T02:50:28.818Z,15.60
2018-08-24T02:52:56.091Z,15.50
2018-08-24T02:55:23.418Z,15.87
2018-08-24T02:57:50.711Z,13.43
2018-08-24T03:00:18.567Z,15.17
2018-08-24T03:02:46.802Z,14.20
2018-08-24T03:05:14.156Z,13.10
2018-08-24T03:07:41.417Z,12.33
2018-08-24T03:10:08.746Z,11.10
2018-08-24T03:12:36.045Z,11.10
2018-08-24T03:15:03.373Z,9.70
2018-08-24T03:17:36.099Z,9.43
2018-08-24T03:20:03.429Z,8.53
2018-08-24T03:22:30.718Z,7.50
2018-08-24T03:24:58.087Z,8.00
2018-08-24T03:27:25.358Z,7.33
2018-08-24T03:29:52.650Z,6.83
2018-08-24T03:32:20.005Z,6.90
2018-08-24T03:34:47.296Z,5.90
2018-08-24T03:37:14.606Z,6.03
2018-08-24T03:39:41.915Z,5.40
2018-08-24T03:42:10.098Z,4.47
2018-08-24T03:44:37.383Z,5.57
2018-08-24T03:47:04.813Z,5.10
2018-08-24T03:49:32.094Z,4.20
2018-08-24T03:51:59.446Z,4.40
2018-08-24T03:54:26.726Z,4.00
2018-08-24T03:56:55.915Z,4.47
2018-08-24T03:59:23.912Z,4.60
2018-08-24T04:01:51.643Z,4.50
2018-08-24T04:04:18.946Z,4.43
2018-08-24T04:06:46.465Z,4.30
2018-08-24T04:09:14.454Z,4.10
2018-08-24T04:11:41.725Z,4.07
2018-08-24T04:14:09.012Z,4.20
2018-08-24T04:16:41.692Z,4.07
2018-08-24T04:19:26.816Z,3.73
2018-08-24T04:21:54.448Z,3.73
2018-08-24T04:24:21.939Z,3.27
2018-08-24T04:26:49.230Z,3.50
2018-08-24T04:29:16.477Z,3.23
2018-08-24T04:31:43.779Z,3.13
2018-08-24T04:34:11.035Z,3.10
2018-08-24T04:36:38.414Z,4.17
2018-08-24T04:39:06.806Z,3.40
2018-08-24T04:41:34.102Z,3.33
2018-08-24T04:44:01.411Z,3.30
2018-08-24T04:46:28.700Z,3.37
2018-08-24T04:48:56.013Z,3.70
2018-08-24T04:51:23.406Z,3.23
2018-08-24T04:53:50.718Z,3.50
2018-08-24T04:56:18.106Z,3.87
2018-08-24T04:58:45.491Z,3.70
2018-08-24T05:01:12.849Z,3.57
2018-08-24T05:03:40.187Z,3.80
2018-08-24T05:06:07.464Z,3.60
2018-08-24T05:08:34.742Z,3.70
2018-08-24T05:11:02.043Z,3.40
2018-08-24T05:13:29.742Z,4.43
2018-08-24T05:15:57.086Z,4.23
2018-08-24T05:18:24.389Z,5.07
2018-08-24T05:20:51.798Z,5.80
2018-08-24T05:23:19.099Z,5.83
2018-08-24T05:25:46.395Z,6.10
2018-08-24T05:28:14.085Z,7.20
2018-08-24T05:30:41.309Z,7.20
2018-08-24T05:33:08.603Z,7.17
2018-08-24T05:35:35.903Z,7.00
2018-08-24T05:38:03.188Z,8.30
2018-08-24T05:40:30.462Z,7.90
2018-08-24T05:42:57.725Z,8.30
2018-08-24T05:45:25.055Z,8.63
2018-08-24T05:47:52.334Z,8.60
2018-08-24T05:50:19.597Z,8.30
2018-08-24T05:52:46.920Z,8.97
2018-08-24T05:55:14.190Z,8.60
2018-08-24T05:57:41.491Z,9.00
2018-08-24T06:00:08.867Z,8.10
2018-08-24T06:02:36.162Z,7.90
2018-08-24T06:05:03.491Z,7.90
2018-08-24T06:07:30.785Z,8.57
2018-08-24T06:09:58.057Z,7.53
2018-08-24T06:12:25.361Z,7.30
2018-08-24T06:14:52.642Z,7.60
2018-08-24T06:17:25.505Z,8.33
2018-08-24T06:19:52.819Z,8.00
2018-08-24T06:22:20.144Z,8.13
2018-08-24T06:24:47.416Z,7.70
2018-08-24T06:27:14.691Z,8.10
2018-08-24T06:29:42.073Z,8.50
2018-08-24T06:32:09.399Z,8.50
2018-08-24T06:34:36.666Z,9.70
2018-08-24T06:37:03.938Z,8.87
2018-08-24T06:39:31.240Z,9.60
2018-08-24T06:41:58.600Z,9.33
2018-08-24T06:44:25.856Z,9.77
2018-08-24T06:46:53.132Z,9.37
2018-08-24T06:49:20.422Z,8.60
2018-08-24T06:51:50.727Z,8.63
2018-08-24T06:54:17.995Z,8.80
2018-08-24T06:56:45.342Z,8.60
2018-08-24T06:59:12.661Z,8.27
2018-08-24T07:01:39.970Z,8.30
2018-08-24T07:04:07.264Z,8.33
2018-08-24T07:06:34.550Z,9.13
2018-08-24T07:09:01.906Z,9.47
2018-08-24T07:11:29.152Z,8.60
2018-08-24T07:13:56.428Z,9.33
2018-08-24T07:16:23.713Z,8.63
2018-08-24T07:18:50.978Z,8.50
2018-08-24T07:21:18.266Z,9.27
2018-08-24T07:23:45.535Z,9.00
2018-08-24T07:26:12.814Z,9.23
2018-08-24T07:28:40.330Z,9.17
2018-08-24T07:31:07.977Z,9.60
2018-08-24T07:33:35.255Z,8.60
2018-08-24T07:36:02.525Z,7.90
2018-08-24T07:38:29.855Z,9.30
2018-08-24T07:40:57.139Z,8.30
2018-08-24T07:43:25.554Z,8.90
2018-08-24T07:45:52.943Z,8.90
2018-08-24T07:48:20.231Z,9.10
2018-08-24T07:50:47.559Z,9.20
2018-08-24T07:53:14.825Z,8.53
2018-08-24T07:55:42.108Z,9.10
2018-08-24T07:58:09.405Z,8.43
2018-08-24T08:00:36.698Z,8.00
2018-08-24T08:03:03.973Z,8.47
2018-08-24T08:05:31.270Z,8.77
2018-08-24T08:07:58.590Z,8.77
2018-08-24T08:10:30.196Z,9.30
2018-08-24T08:12:57.489Z,8.97
2018-08-24T08:15:24.787Z,8.40
2018-08-24T08:17:52.084Z,8.83
2018-08-24T08:20:19.483Z,10.10
2018-08-24T08:22:46.785Z,8.33
2018-08-24T08:25:14.053Z,8.90
2018-08-24T08:27:41.339Z,8.03
2018-08-24T08:30:08.621Z,8.33
2018-08-24T08:32:35.899Z,8.83
2018-08-24T08:35:03.196Z,8.67
2018-08-24T08:37:30.485Z,9.10
2018-08-24T08:40:00.013Z,8.90
2018-08-24T08:42:27.376Z,8.50
2018-08-24T08:44:54.689Z,8.10
2018-08-24T08:47:21.994Z,8.50
2018-08-24T08:49:49.285Z,8.23
2018-08-24T08:52:16.571Z,7.80
2018-08-24T08:54:43.820Z,8.50
2018-08-24T08:57:11.133Z,7.90
2018-08-24T08:59:38.470Z,7.60
2018-08-24T09:02:06.003Z,8.10
2018-08-24T09:04:33.281Z,7.30
2018-08-24T09:07:00.557Z,6.97
2018-08-24T09:09:27.895Z,7.00
2018-08-24T09:11:55.156Z,7.50
2018-08-24T09:14:22.415Z,6.90
2018-08-24T09:16:49.727Z,6.67
2018-08-24T09:19:22.643Z,7.30
2018-08-24T09:21:55.212Z,8.00
2018-08-24T09:24:27.942Z,7.30
2018-08-24T09:27:00.735Z,7.67
2018-08-24T09:29:28.908Z,8.03
2018-08-24T09:31:57.300Z,8.13
2018-08-24T09:34:24.724Z,8.20
2018-08-24T09:36:52.162Z,8.10
2018-08-24T09:39:25.271Z,8.03
2018-08-24T09:41:53.054Z,7.43
2018-08-24T09:44:20.333Z,7.83
2018-08-24T09:46:53.100Z,6.80
2018-08-24T09:49:25.781Z,7.80
2018-08-24T09:51:53.053Z,8.43
2018-08-24T09:54:20.346Z,7.80
2018-08-24T09:56:47.659Z,8.03
2018-08-24T09:59:14.898Z,7.67
2018-08-24T10:01:47.651Z,8.37
2018-08-24T10:04:20.358Z,7.87
2018-08-24T10:06:53.313Z,8.70
2018-08-24T10:09:20.567Z,9.43
2018-08-24T10:11:48.232Z,8.53
2018-08-24T10:14:15.497Z,8.87
2018-08-24T10:16:42.758Z,9.70
2018-08-24T10:19:13.093Z,14.50
2018-08-24T10:21:40.362Z,21.80
2018-08-24T10:24:07.800Z,23.77
2018-08-24T10:26:35.065Z,24.70
2018-08-24T10:29:03.236Z,28.47
2018-08-24T10:31:32.920Z,25.43
2018-08-24T10:34:02.215Z,24.37
2018-08-24T10:36:29.586Z,23.98
2018-08-24T10:38:57.000Z,21.12
2018-08-24T10:41:24.229Z,22.20
2018-08-24T10:43:51.465Z,22.53
2018-08-24T10:46:18.757Z,15.08
2018-08-24T10:48:46.044Z,12.17
2018-08-24T10:51:13.350Z,10.08
2018-08-24T10:53:40.671Z,11.00
2018-08-24T10:56:07.996Z,12.07
2018-08-24T10:58:35.805Z,15.10
2018-08-24T11:01:03.073Z,13.53
2018-08-24T11:03:30.390Z,17.67
2018-08-24T11:05:57.676Z,17.50
2018-08-24T11:08:24.963Z,18.47
2018-08-24T11:10:52.270Z,18.80
2018-08-24T11:13:19.579Z,20.37
2018-08-24T11:15:49.532Z,19.03
2018-08-24T11:18:17.091Z,20.53
2018-08-24T11:20:44.416Z,20.37
2018-08-24T11:23:11.805Z,19.17
2018-08-24T11:25:38.997Z,18.50
2018-08-24T11:28:06.359Z,19.50
2018-08-24T11:30:33.646Z,19.60
2018-08-24T11:33:00.944Z,18.80
2018-08-24T11:35:28.462Z,18.37
2018-08-24T11:37:55.745Z,18.47
2018-08-24T11:40:23.074Z,16.03
2018-08-24T11:42:50.537Z,16.60
2018-08-24T11:45:17.837Z,16.07
2018-08-24T11:47:45.865Z,15.10
2018-08-24T11:50:14.212Z,11.70
2018-08-24T11:52:41.502Z,12.03
2018-08-24T11:55:08.974Z,11.70
2018-08-24T11:57:36.438Z,12.73
2018-08-24T12:00:04.029Z,11.80
2018-08-24T12:02:33.140Z,10.33
2018-08-24T12:05:00.627Z,9.10
2018-08-24T12:07:28.302Z,8.20
2018-08-24T12:09:55.620Z,7.10
2018-08-24T12:12:22.967Z,7.50
2018-08-24T12:14:50.223Z,6.80
2018-08-24T12:17:22.816Z,6.53
2018-08-24T12:19:50.092Z,6.17
2018-08-24T12:22:17.383Z,6.67
2018-08-24T12:24:44.656Z,6.43
2018-08-24T12:27:12.039Z,5.50
2018-08-24T12:29:39.285Z,5.50
2018-08-24T12:32:06.590Z,5.67
2018-08-24T12:34:33.882Z,5.93
2018-08-24T12:37:01.150Z,5.80
2018-08-24T12:39:28.411Z,5.20
2018-08-24T12:41:55.714Z,4.60
2018-08-24T12:44:23.020Z,4.50
2018-08-24T12:46:50.335Z,5.40
2018-08-24T12:49:17.759Z,5.63
2018-08-24T12:51:45.008Z,5.57
2018-08-24T12:54:12.306Z,5.03
2018-08-24T12:56:39.615Z,5.07
2018-08-24T12:59:06.894Z,5.07
2018-08-24T13:01:34.179Z,5.27
2018-08-24T13:04:01.434Z,4.83
2018-08-24T13:06:28.741Z,5.20
2018-08-24T13:08:56.006Z,3.97
2018-08-24T13:11:23.376Z,4.70
2018-08-24T13:13:50.655Z,4.30
2018-08-24T13:16:17.936Z,4.37
2018-08-24T13:18:45.278Z,3.90
2018-08-24T13:21:12.589Z,3.77
2018-08-24T13:23:40.075Z,3.77
2018-08-24T13:26:07.375Z,3.50
2018-08-24T13:28:34.626Z,3.60
2018-08-24T13:31:01.926Z,3.23
2018-08-24T13:33:29.213Z,3.50
2018-08-24T13:35:56.506Z,3.30
2018-08-24T13:38:23.754Z,3.43
2018-08-24T13:40:51.075Z,3.40
2018-08-24T13:43:18.346Z,3.40
2018-08-24T13:45:45.596Z,3.13
2018-08-24T13:48:13.582Z,2.83
2018-08-24T13:50:40.861Z,3.27
2018-08-24T13:53:08.147Z,3.10
2018-08-24T13:55:35.444Z,3.70
2018-08-24T13:58:02.879Z,3.20
2018-08-24T14:00:30.146Z,4.50
2018-08-24T14:02:57.778Z,3.53
2018-08-24T14:05:25.196Z,3.60
2018-08-24T14:07:52.462Z,3.20
2018-08-24T14:10:19.710Z,3.10
2018-08-24T14:12:47.053Z,3.40
2018-08-24T14:15:14.335Z,3.43
2018-08-24T14:17:41.715Z,3.13
2018-08-24T14:20:09.076Z,3.40
2018-08-24T14:22:36.567Z,3.40
2018-08-24T14:25:04.199Z,3.10
2018-08-24T14:27:31.548Z,3.00
2018-08-24T14:29:58.830Z,3.77
2018-08-24T14:32:26.141Z,3.17
2018-08-24T14:34:53.431Z,3.27
2018-08-24T14:37:20.745Z,3.43
2018-08-24T14:39:48.100Z,2.77
2018-08-24T14:42:15.342Z,2.93
2018-08-24T14:44:42.632Z,2.77
2018-08-24T14:47:09.898Z,3.10
2018-08-24T14:49:37.202Z,3.37
2018-08-24T14:52:04.590Z,3.20
2018-08-24T14:54:31.889Z,3.50
2018-08-24T14:56:59.141Z,3.33
2018-08-24T14:59:26.485Z,3.63
2018-08-24T15:01:53.821Z,3.40
2018-08-24T15:04:21.149Z,3.53
2018-08-24T15:06:48.389Z,5.73
2018-08-24T15:09:15.679Z,3.60
2018-08-24T15:11:42.962Z,4.27
2018-08-24T15:14:10.579Z,3.30
2018-08-24T15:16:38.182Z,3.77
2018-08-24T15:19:05.728Z,3.83
2018-08-24T15:21:32.998Z,3.83
2018-08-24T15:24:00.307Z,4.50
2018-08-24T15:26:27.588Z,3.20
2018-08-24T15:28:54.932Z,3.30
2018-08-24T15:31:22.192Z,3.23
2018-08-24T15:33:49.522Z,3.23
2018-08-24T15:36:16.779Z,2.93
2018-08-24T15:38:44.046Z,3.40
2018-08-24T15:41:11.323Z,2.90
2018-08-24T15:43:38.610Z,3.27
2018-08-24T15:46:06.131Z,3.03
2018-08-24T15:48:33.414Z,3.80
2018-08-24T15:51:00.701Z,3.33
2018-08-24T15:53:27.989Z,2.80
2018-08-24T15:55:55.262Z,3.23
2018-08-24T15:58:22.595Z,3.30
2018-08-24T16:00:49.916Z,3.17
2018-08-24T16:03:17.169Z,3.00
2018-08-24T16:05:44.427Z,2.97
2018-08-24T16:08:11.713Z,2.70
2018-08-24T16:10:38.959Z,3.17
2018-08-24T16:13:06.259Z,3.30
2018-08-24T16:15:33.552Z,3.17
2018-08-24T16:18:06.362Z,3.20
2018-08-24T16:20:33.659Z,3.27
2018-08-24T16:23:00.938Z,3.30
2018-08-24T16:25:28.278Z,3.50
2018-08-24T16:27:55.529Z,2.93
2018-08-24T16:30:22.876Z,3.50
2018-08-24T16:32:50.081Z,3.30
2018-08-24T16:35:17.398Z,3.13
2018-08-24T16:37:44.679Z,2.90
2018-08-24T16:40:11.956Z,3.43
2018-08-24T16:42:39.289Z,3.20
2018-08-24T16:45:06.629Z,3.80
2018-08-24T16:47:34.084Z,3.50
2018-08-24T16:50:01.391Z,2.83
2018-08-24T16:52:28.715Z,3.80
2018-08-24T16:54:55.952Z,3.17
2018-08-24T16:57:23.234Z,3.10
2018-08-24T16:59:50.493Z,3.20
2018-08-24T17:02:22.538Z,3.60
2018-08-24T17:04:49.803Z,3.50
2018-08-24T17:07:17.111Z,3.30
2018-08-24T17:09:44.394Z,3.00
2018-08-24T17:12:11.708Z,3.00
2018-08-24T17:14:39.035Z,3.10
2018-08-24T17:17:06.364Z,3.27
2018-08-24T17:19:33.641Z,2.93
2018-08-24T17:22:00.954Z,3.33
2018-08-24T17:24:28.295Z,2.80
2018-08-24T17:26:55.545Z,4.33
2018-08-24T17:29:22.826Z,3.10
2018-08-24T17:31:50.139Z,3.13
2018-08-24T17:34:17.407Z,3.00
2018-08-24T17:36:46.834Z,3.00
2018-08-24T17:39:14.095Z,3.37
2018-08-24T17:41:41.493Z,2.83
2018-08-24T17:44:08.997Z,3.47
2018-08-24T17:46:36.311Z,3.70
2018-08-24T17:49:04.068Z,3.33
2018-08-24T17:51:31.338Z,3.13
2018-08-24T17:53:58.670Z,3.13
2018-08-24T17:56:25.982Z,3.20
2018-08-24T17:58:53.299Z,2.97
2018-08-24T18:01:20.603Z,3.40
2018-08-24T18:03:47.931Z,2.90
2018-08-24T18:06:15.224Z,3.87
2018-08-24T18:08:42.500Z,3.30
2018-08-24T18:11:09.770Z,3.53
2018-08-24T18:13:37.045Z,3.33
2018-08-24T18:16:04.733Z,3.07
2018-08-24T18:18:32.011Z,3.10
2018-08-24T18:20:59.282Z,2.67
2018-08-24T18:23:26.576Z,3.50
2018-08-24T18:25:53.834Z,3.27
2018-08-24T18:28:21.098Z,3.10
2018-08-24T18:30:48.360Z,2.90
2018-08-24T18:33:16.716Z,3.20
2018-08-24T18:35:44.018Z,3.17
2018-08-24T18:38:11.547Z,3.23
2018-08-24T18:40:41.673Z,3.20
2018-08-24T18:43:09.483Z,3.47
2018-08-24T18:45:36.998Z,3.53
2018-08-24T18:48:04.299Z,2.73
2018-08-24T18:50:31.645Z,3.30
2018-08-24T18:52:59.020Z,3.13
2018-08-24T18:55:26.695Z,3.63
2018-08-24T18:57:54.152Z,3.20
2018-08-24T19:00:22.571Z,3.03
2018-08-24T19:02:49.861Z,3.13
2018-08-24T19:05:17.168Z,3.57
2018-08-24T19:07:45.119Z,3.53
2018-08-24T19:10:12.411Z,2.60
2018-08-24T19:12:39.752Z,2.93
2018-08-24T19:15:07.050Z,3.13
2018-08-24T19:17:39.795Z,2.83
2018-08-24T19:20:12.615Z,3.17
2018-08-24T19:22:42.893Z,3.17
2018-08-24T19:25:10.223Z,3.40
2018-08-24T19:27:43.241Z,2.80
2018-08-24T19:30:16.151Z,2.90
2018-08-24T19:32:43.806Z,2.90
2018-08-24T19:35:11.606Z,3.13
2018-08-24T19:37:38.919Z,3.00
2018-08-24T19:40:11.919Z,2.97
2018-08-24T19:42:39.195Z,2.93
2018-08-24T19:45:06.485Z,3.80
2018-08-24T19:47:39.336Z,2.70
2018-08-24T19:50:06.702Z,3.43
2018-08-24T19:52:33.996Z,3.43
2018-08-24T19:55:01.284Z,4.60
2018-08-24T19:57:34.971Z,2.80
2018-08-24T20:00:02.442Z,2.80
2018-08-24T20:02:29.867Z,3.00
2018-08-24T20:04:57.137Z,4.17
2018-08-24T20:07:30.051Z,2.50
2018-08-24T20:10:06.293Z,3.07
2018-08-24T20:12:33.665Z,2.80
2018-08-24T20:15:08.112Z,3.10
2018-08-24T20:17:37.884Z,3.07
2018-08-24T20:20:07.174Z,3.07
2018-08-24T20:22:34.673Z,3.33
2018-08-24T20:25:03.501Z,3.17
2018-08-24T20:27:31.482Z,3.30
2018-08-24T20:29:59.537Z,2.97
2018-08-24T20:32:27.796Z,2.80
2018-08-24T20:34:55.684Z,2.70
2018-08-24T20:37:25.043Z,2.83
2018-08-24T20:39:53.680Z,3.00
2018-08-24T20:42:22.094Z,5.57
2018-08-24T20:44:50.924Z,6.40
2018-08-24T20:47:18.608Z,3.10
2018-08-24T20:49:46.739Z,2.90
2018-08-24T20:52:14.537Z,2.97
2018-08-24T20:54:42.690Z,3.07
2018-08-24T20:57:11.183Z,2.73
2018-08-24T20:59:40.366Z,2.70
2018-08-24T21:02:10.153Z,3.30
2018-08-24T21:04:39.101Z,3.33
2018-08-24T21:07:07.895Z,3.08
2018-08-24T21:09:37.122Z,3.20
2018-08-24T21:12:04.909Z,2.87
2018-08-24T21:14:32.453Z,3.47
2018-08-24T21:17:02.346Z,3.10
2018-08-24T21:19:31.267Z,3.03
2018-08-24T21:21:59.510Z,3.30
2018-08-24T21:24:27.886Z,3.33
2018-08-24T21:26:56.854Z,3.15
2018-08-24T21:29:25.467Z,3.10
2018-08-24T21:31:53.863Z,3.40
2018-08-24T21:34:22.444Z,2.95
2018-08-24T21:36:50.559Z,3.50
2018-08-24T21:39:18.259Z,3.10
2018-08-24T21:41:46.379Z,3.60
2018-08-24T21:44:14.551Z,3.37
2018-08-24T21:46:42.598Z,2.90
2018-08-24T21:49:11.467Z,3.95
2018-08-24T21:51:41.081Z,3.40
2018-08-24T21:54:09.072Z,3.52
2018-08-24T21:56:37.640Z,3.60
2018-08-24T21:59:06.004Z,3.40
2018-08-24T22:01:34.030Z,3.87
2018-08-24T22:04:01.652Z,3.45
2018-08-24T22:06:30.496Z,3.52
2018-08-24T22:08:58.715Z,3.77
2018-08-24T22:11:26.183Z,3.35
2018-08-24T22:13:53.453Z,3.75
2018-08-24T22:16:20.753Z,4.70
2018-08-24T22:18:48.060Z,4.10
2018-08-24T22:21:15.326Z,3.52
2018-08-24T22:23:42.648Z,3.90
2018-08-24T22:26:09.907Z,3.58
2018-08-24T22:28:37.243Z,3.25
2018-08-24T22:31:04.908Z,3.50
2018-08-24T22:33:32.198Z,3.60
2018-08-24T22:35:59.499Z,3.67
2018-08-24T22:38:26.762Z,3.90
2018-08-24T22:40:54.038Z,3.30
2018-08-24T22:43:26.716Z,3.55
2018-08-24T22:45:54.003Z,3.40
2018-08-24T22:48:21.263Z,3.20
2018-08-24T22:50:48.598Z,3.12
2018-08-24T22:53:15.866Z,4.10
2018-08-24T22:55:44.019Z,3.47
2018-08-24T22:58:11.334Z,3.40
2018-08-24T23:00:38.647Z,3.27
2018-08-24T23:03:05.952Z,3.00
2018-08-24T23:05:33.259Z,3.45
2018-08-24T23:08:00.563Z,3.15
2018-08-24T23:10:28.645Z,3.37
2018-08-24T23:12:55.944Z,3.27
2018-08-24T23:15:23.280Z,3.20
2018-08-24T23:17:50.708Z,2.83
2018-08-24T23:20:17.958Z,3.30
2018-08-24T23:22:45.269Z,3.20
2018-08-24T23:25:12.545Z,2.90
2018-08-24T23:27:39.821Z,2.90
2018-08-24T23:30:07.164Z,3.25
2018-08-24T23:32:34.478Z,2.90
2018-08-24T23:35:01.897Z,3.50
2018-08-24T23:37:29.324Z,3.00
2018-08-24T23:39:56.586Z,3.17
2018-08-24T23:42:23.888Z,3.25
2018-08-24T23:44:51.194Z,2.90
2018-08-24T23:47:18.477Z,2.67
2018-08-24T23:49:45.796Z,2.95
2018-08-24T23:52:13.115Z,3.00
2018-08-24T23:54:40.496Z,3.00
2018-08-24T23:57:07.781Z,2.90
2018-08-24T23:59:35.045Z,3.37
